createdAt,value
2018-11-28T00:09:55.950Z,92661.34
2018-11-28T00:25:00.282Z,92689.13
2018-11-28T00:40:07.215Z,92685.95
2018-11-28T00:55:15.620Z,92694.06
2018-11-28T01:10:20.817Z,92712.30
2018-11-28T01:25:28.664Z,92714.59
2018-11-28T01:40:34.466Z,92717.06
2018-11-28T01:55:38.868Z,92723.88
2018-11-28T02:10:43.088Z,92741.80
2018-11-28T02:25:47.389Z,92766.12
2018-11-28T02:40:51.659Z,92793.84
2018-11-28T02:55:56.818Z,92814.70
2018-11-28T03:11:01.708Z,92845.20
2018-11-28T03:26:06.404Z,92857.69
2018-11-28T03:41:10.571Z,92868.37
2018-11-28T03:56:15.536Z,92896.06
2018-11-28T04:11:20.674Z,92925.28
2018-11-28T04:26:25.389Z,92956.28
2018-11-28T04:41:30.145Z,92952.36
2018-11-28T04:56:34.310Z,92967.53
2018-11-28T05:11:39.943Z,92979.16
2018-11-28T05:26:47.367Z,92998.98
2018-11-28T05:41:51.540Z,93030.97
2018-11-28T05:56:56.179Z,93055.93
2018-11-28T06:12:00.249Z,93081.10
2018-11-28T06:27:05.566Z,93115.95
2018-11-28T06:42:09.818Z,93137.77
2018-11-28T06:57:14.223Z,93166.52
2018-11-28T07:12:19.393Z,93191.98
2018-11-28T07:27:23.798Z,93207.64
2018-11-28T07:42:28.434Z,93231.91
2018-11-28T07:57:32.834Z,93245.64
2018-11-28T08:12:37.053Z,93275.05
2018-11-28T08:27:43.410Z,93292.36
2018-11-28T08:42:48.010Z,93329.34
2018-11-28T08:57:53.185Z,93343.25
2018-11-28T09:13:03.779Z,93364.59
2018-11-28T09:28:02.736Z,93366.70
2018-11-28T09:43:10.312Z,93379.31
2018-11-28T09:58:14.621Z,93388.75
2018-11-28T10:13:18.685Z,93390.23
2018-11-28T10:28:24.401Z,93400.53
2018-11-28T10:43:28.957Z,93414.78
2018-11-28T10:58:33.015Z,93431.30
2018-11-28T11:13:43.087Z,93436.66
2018-11-28T11:28:47.435Z,93454.75
2018-11-28T11:43:51.473Z,93474.42
2018-11-28T11:58:57.283Z,93489.91
2018-11-28T12:14:01.505Z,93502.29
2018-11-28T12:29:06.564Z,93515.25
2018-11-28T12:44:11.285Z,93538.63
2018-11-28T12:59:15.564Z,93552.25
2018-11-28T13:14:19.974Z,93584.84
2018-11-28T13:29:26.606Z,93620.22
2018-11-28T13:44:30.811Z,93654.22
2018-11-28T13:59:35.084Z,93687.69
2018-11-28T14:14:39.290Z,93699.21
2018-11-28T14:29:44.026Z,93733.09
2018-11-28T14:44:52.576Z,93755.66
2018-11-28T14:59:58.218Z,93782.15
2018-11-28T15:15:03.936Z,93822.32
2018-11-28T15:30:10.343Z,93850.34
2018-11-28T15:45:15.655Z,93875.23
2018-11-28T16:00:26.676Z,93883.78
2018-11-28T16:15:36.210Z,93894.88
2018-11-28T16:30:40.439Z,93924.16
2018-11-28T16:45:44.945Z,93955.16
2018-11-28T17:00:51.504Z,93976.88
2018-11-28T17:15:56.101Z,94004.61
2018-11-28T17:31:00.602Z,94028.70
2018-11-28T17:46:05.394Z,94059.77
2018-11-28T18:01:10.739Z,94079.66
2018-11-28T18:16:15.138Z,94096.66
2018-11-28T18:31:20.465Z,94116.77
2018-11-28T18:46:25.860Z,94121.58
2018-11-28T19:01:30.331Z,94151.03
2018-11-28T19:16:37.835Z,94165.34
2018-11-28T19:31:39.272Z,94190.27
2018-11-28T19:46:43.851Z,94198.47
2018-11-28T20:01:48.362Z,94218.75
2018-11-28T20:16:52.692Z,94228.16
2018-11-28T20:31:57.278Z,94239.28
2018-11-28T20:47:04.212Z,94256.98
2018-11-28T21:02:07.221Z,94274.16
2018-11-28T21:17:12.290Z,94293.66
2018-11-28T21:32:18.237Z,94315.30
2018-11-28T21:47:23.535Z,94322.25
2018-11-28T22:02:31.231Z,94345.09
2018-11-28T22:17:36.198Z,94350.67
2018-11-28T22:32:40.438Z,94351.73
2018-11-28T22:47:48.002Z,94362.56
2018-11-28T23:02:58.406Z,94373.89
2018-11-28T23:18:03.013Z,94385.61
2018-11-28T23:33:20.092Z,94391.37
2018-11-28T23:48:24.238Z,94400.14
